KANQ

Tri-State Steuben County Airport

Angola, Indiana, USA
METAR KANQ 221515Z AUTO 06010KT 10SM CLR 13/06 A3033 RMK AO2 TSNO
Observed Flight Rules
Sep-22 @ 15:15 UTC (13 minutes ago) Visual Flight Rules
Wind Visibility Clouds
60° at 10 knots 10 miles
Temperatures Readings
Current 13°C / 55°F
Dewpoint 6°C / 43°F
Humidity 63%
Altimeter 30.33" Hg
Pressure 1027 hPa
Elevation 303
METAR KANQ 221515Z AUTO 06010KT 10SM CLR 13/06 A3033 RMK AO2 TSNO
Observed Flight Rules
Sep-22 @ 15:15 UTC
(13 minutes ago)
VFR
Wind Visibility
60° at 10 knots 10 miles
Clouds
Temperature Dewpoint
13°C / 55°F 6°C / 43°F
Humidity Altimeter Pressure
63% 30.33" Hg 1027 hPa